EDT,Max TemperatureF,Mean TemperatureF,Min TemperatureF,Max Dew PointF,MeanDew PointF,Min DewpointF,Max Humidity, Mean Humidity, Min Humidity, Max Sea Level PressureIn, Mean Sea Level PressureIn, Min Sea Level PressureIn, Max VisibilityMiles, Mean VisibilityMiles, Min VisibilityMiles, Max Wind SpeedMPH, Mean Wind SpeedMPH, Max Gust SpeedMPH,PrecipitationIn, CloudCover, Events, WindDirDegrees
2011-10-1,46,44,41,45,42,37,100,97,87,30.07,30.00,29.94,10,8,2,7,1,,0.00,8,Rain,315
2011-10-2,53,47,41,43,39,36,100,81,51,30.15,30.09,30.06,10,10,3,8,3,,0.00,6,,312
2011-10-3,50,44,37,46,42,37,100,93,76,30.23,30.16,30.06,10,9,3,4,0,,0.00,5,Rain,318
2011-10-4,62,54,46,54,50,46,100,92,68,30.37,30.30,30.24,10,9,5,5,0,,0.00,7,,16
2011-10-5,71,56,42,59,49,43,100,89,56,30.40,30.36,30.31,10,5,0,4,0,,0.00,5,Fog,40
2011-10-6,77,60,44,61,51,45,100,83,41,30.40,30.37,30.34,10,7,0,5,0,,0.00,3,Fog,235
2011-10-7,80,63,46,61,52,46,100,84,39,30.48,30.43,30.40,10,8,0,4,0,,0.00,2,Fog,95
2011-10-8,77,60,44,55,50,45,100,80,39,30.55,30.49,30.44,10,10,5,5,0,,0.00,0,,104
2011-10-9,77,60,44,55,49,45,100,76,32,30.50,30.45,30.38,10,10,7,5,0,,0.00,0,,88
2011-10-10,75,60,46,55,50,45,100,75,36,30.40,30.32,30.22,10,10,10,7,0,,0.00,0,,117
2011-10-11,71,62,53,54,52,46,100,73,43,30.20,30.14,30.08,10,10,10,8,1,18,0.00,5,,104
2011-10-12,64,58,53,61,57,54,100,95,77,30.03,29.92,29.87,10,8,2,4,0,,0.00,7,Rain,313
2011-10-13,71,62,53,64,58,54,100,98,78,29.85,29.71,29.60,10,6,0,8,0,,0.00,7,Fog-Rain,338
2011-10-14,64,58,53,57,49,36,100,78,34,29.78,29.71,29.62,10,10,4,10,2,24,0.00,6,Rain,327
2011-10-15,64,52,41,45,40,34,100,69,34,30.03,29.97,29.87,10,10,10,10,1,18,0.00,3,,327
2011-10-16,77,56,35,46,40,36,100,74,29,30.20,30.12,29.96,10,10,10,7,1,,0.00,0,,272
2011-10-17,73,62,50,54,51,46,100,72,38,30.01,29.96,29.91,10,10,10,8,1,,0.00,2,,322
2011-10-18,78,62,46,61,53,46,100,80,39,29.93,29.85,29.71,10,10,4,4,0,,0.00,1,Rain,12
2011-10-19,64,55,46,61,54,46,100,87,72,29.65,29.49,29.31,10,9,1,14,2,36,0.00,6,Rain,72
2011-10-20,46,44,41,43,40,37,93,86,71,29.92,29.65,29.49,10,9,4,7,1,,0.00,8,Rain,287
2011-10-21,55,46,37,41,38,36,100,76,47,30.16,30.10,30.01,10,10,10,8,2,,0.00,6,,318
2011-10-22,60,46,33,45,37,34,100,83,39,30.24,30.19,30.14,10,7,0,6,0,,0.00,3,Fog,325
2011-10-23,64,48,32,45,37,32,100,80,34,30.21,30.16,30.11,10,8,0,5,0,,0.00,1,Fog,324
2011-10-24,69,53,37,52,43,37,100,78,38,30.19,30.15,30.07,10,10,10,8,1,,0.00,3,Rain,311
2011-10-25,69,55,41,52,44,41,100,85,37,30.36,30.27,30.16,10,5,0,5,0,,0.00,5,Fog,220
2011-10-26,73,55,37,54,45,37,100,77,38,30.14,30.06,29.94,10,10,7,7,0,,0.00,3,,307
2011-10-27,57,55,51,55,55,52,100,98,94,29.92,29.88,29.84,10,6,2,5,0,,0.00,8,Rain,320
2011-10-28,42,40,37,43,39,37,100,95,87,30.16,30.13,30.09,10,8,2,4,0,,0.00,8,Rain,57
2011-10-29,46,40,35,37,35,32,100,91,61,30.13,30.08,30.03,10,7,2,7,0,,0.00,7,Snow,330
2011-10-30,55,42,30,41,33,30,100,84,41,30.34,30.26,30.18,10,7,0,4,0,,0.00,3,Fog,330
2011-10-31,50,41,32,43,35,32,100,87,54,30.28,30.26,30.21,10,10,5,5,0,,0.00,3,Rain,310